createdAt,value
2023-02-02T00:01:49.680Z,83.04
2023-02-02T00:04:22.090Z,82.40
2023-02-02T00:06:50.032Z,82.37
2023-02-02T00:09:19.823Z,82.55
2023-02-02T00:11:51.007Z,83.01
2023-02-02T00:14:19.259Z,82.19
2023-02-02T00:16:47.893Z,82.74
2023-02-02T00:19:17.101Z,82.49
2023-02-02T00:21:45.355Z,82.43
2023-02-02T00:24:14.880Z,81.83
2023-02-02T00:26:44.102Z,81.70
2023-02-02T00:29:16.586Z,81.94
2023-02-02T00:31:44.002Z,80.93
2023-02-02T00:34:12.563Z,81.33
2023-02-02T00:36:40.167Z,80.42
2023-02-02T00:39:08.344Z,80.27
2023-02-02T00:41:35.691Z,80.32
2023-02-02T00:44:20.359Z,79.66
2023-02-02T00:46:49.033Z,80.10
2023-02-02T00:49:16.460Z,79.22
2023-02-02T00:51:43.881Z,79.28
2023-02-02T00:54:11.263Z,79.51
2023-02-02T00:56:38.703Z,79.04
2023-02-02T00:59:06.120Z,78.89
2023-02-02T01:01:34.572Z,79.01
2023-02-02T01:04:03.263Z,78.08
2023-02-02T01:06:30.610Z,79.00
2023-02-02T01:08:58.388Z,78.53
2023-02-02T01:11:26.435Z,79.37
2023-02-02T01:13:53.700Z,78.19
2023-02-02T01:16:22.374Z,78.29
2023-02-02T01:18:50.151Z,78.51
2023-02-02T01:21:19.248Z,78.26
2023-02-02T01:23:46.825Z,78.22
2023-02-02T01:26:15.050Z,78.19
2023-02-02T01:28:42.928Z,78.39
2023-02-02T01:31:12.306Z,78.24
2023-02-02T01:33:40.263Z,78.56
2023-02-02T01:36:11.069Z,77.93
2023-02-02T01:38:40.321Z,78.55
2023-02-02T01:41:08.025Z,78.09
2023-02-02T01:43:56.696Z,77.61
2023-02-02T01:46:26.724Z,77.62
2023-02-02T01:48:59.311Z,77.30
2023-02-02T01:51:33.307Z,76.91
2023-02-02T01:54:02.975Z,77.16
2023-02-02T01:56:33.595Z,77.32
2023-02-02T01:59:02.144Z,78.03
2023-02-02T02:01:29.745Z,77.82
2023-02-02T02:03:57.686Z,77.98
2023-02-02T02:06:26.644Z,77.93
2023-02-02T02:08:57.498Z,77.58
2023-02-02T02:11:26.226Z,77.62
2023-02-02T02:14:14.414Z,77.93
2023-02-02T02:16:59.423Z,77.50
2023-02-02T02:20:20.624Z,77.52
2023-02-02T02:23:34.571Z,76.73
2023-02-02T02:26:37.495Z,76.64
2023-02-02T02:29:28.165Z,76.02
2023-02-02T02:32:28.354Z,76.78
2023-02-02T02:35:01.590Z,75.90
2023-02-02T02:37:37.776Z,76.25
2023-02-02T02:40:12.476Z,75.79
2023-02-02T02:42:44.905Z,75.86
2023-02-02T02:45:13.749Z,75.58
2023-02-02T02:47:43.953Z,74.70
2023-02-02T02:50:12.019Z,75.37
2023-02-02T02:52:39.863Z,75.14
2023-02-02T02:55:07.800Z,74.80
2023-02-02T02:57:45.657Z,74.89
2023-02-02T03:00:41.393Z,74.75
2023-02-02T03:03:20.618Z,73.81
2023-02-02T03:05:54.975Z,74.29
2023-02-02T03:08:28.308Z,75.04
2023-02-02T03:10:57.622Z,73.92
2023-02-02T03:13:26.530Z,74.19
2023-02-02T03:15:54.703Z,73.66
2023-02-02T03:18:27.236Z,74.01
2023-02-02T03:20:54.704Z,74.63
2023-02-02T03:23:22.501Z,73.64
2023-02-02T03:25:50.353Z,73.88
2023-02-02T03:28:18.767Z,72.77
2023-02-02T03:30:48.619Z,73.08
2023-02-02T03:33:17.331Z,72.59
2023-02-02T03:35:46.660Z,72.59
2023-02-02T03:38:14.018Z,72.73
2023-02-02T03:40:41.683Z,72.86
2023-02-02T03:43:09.195Z,72.84
2023-02-02T03:45:37.198Z,72.43
2023-02-02T03:48:05.130Z,72.39
2023-02-02T03:50:32.471Z,71.80
2023-02-02T03:53:01.208Z,72.77
2023-02-02T03:55:28.579Z,72.43
2023-02-02T03:57:55.918Z,72.45
2023-02-02T04:00:23.484Z,72.33
2023-02-02T04:02:50.901Z,71.58
2023-02-02T04:05:18.269Z,71.71
2023-02-02T04:07:45.639Z,72.30
2023-02-02T04:10:14.334Z,71.37
2023-02-02T04:12:41.705Z,71.67
2023-02-02T04:15:10.000Z,71.73
2023-02-02T04:17:37.394Z,71.33
2023-02-02T04:20:05.726Z,70.99
2023-02-02T04:22:34.140Z,71.28
2023-02-02T04:25:01.516Z,71.29
2023-02-02T04:27:32.508Z,70.52
2023-02-02T04:29:59.899Z,70.80
2023-02-02T04:32:27.284Z,70.81
2023-02-02T04:34:54.663Z,71.02
2023-02-02T04:37:22.034Z,71.28
2023-02-02T04:39:50.629Z,70.51
2023-02-02T04:42:18.018Z,70.61
2023-02-02T04:44:46.797Z,71.01
2023-02-02T04:47:14.187Z,71.15
2023-02-02T04:49:41.538Z,71.40
2023-02-02T04:52:08.941Z,71.56
2023-02-02T04:54:36.306Z,71.70
2023-02-02T04:57:03.865Z,71.79
2023-02-02T04:59:31.248Z,71.19
2023-02-02T05:02:01.561Z,71.23
2023-02-02T05:04:29.064Z,71.50
2023-02-02T05:06:56.502Z,71.88
2023-02-02T05:09:24.037Z,71.59
2023-02-02T05:11:51.534Z,71.43
2023-02-02T05:14:20.223Z,70.96
2023-02-02T05:16:47.711Z,71.48
2023-02-02T05:19:16.964Z,71.36
2023-02-02T05:21:45.604Z,71.23
2023-02-02T05:24:13.495Z,71.27
2023-02-02T05:26:40.947Z,71.59
2023-02-02T05:29:09.186Z,71.87
2023-02-02T05:31:36.754Z,72.12
2023-02-02T05:34:04.946Z,72.31
2023-02-02T05:36:33.756Z,71.77
2023-02-02T05:39:01.283Z,71.48
2023-02-02T05:41:28.643Z,71.56
2023-02-02T05:43:56.044Z,71.31
2023-02-02T05:46:23.384Z,71.34
2023-02-02T05:48:50.748Z,71.64
2023-02-02T05:51:21.881Z,71.33
2023-02-02T05:53:50.593Z,71.56
2023-02-02T05:56:17.983Z,71.82
2023-02-02T05:58:47.304Z,70.97
2023-02-02T06:01:15.070Z,71.29
2023-02-02T06:03:42.508Z,71.16
2023-02-02T06:06:10.607Z,71.37
2023-02-02T06:08:37.977Z,71.81
2023-02-02T06:11:11.350Z,71.54
2023-02-02T06:13:38.772Z,71.71
2023-02-02T06:16:07.104Z,71.68
2023-02-02T06:18:34.865Z,72.23
2023-02-02T06:21:04.012Z,72.62
2023-02-02T06:23:31.387Z,72.77
2023-02-02T06:25:58.907Z,72.86
2023-02-02T06:28:27.675Z,73.01
2023-02-02T06:30:55.139Z,72.68
2023-02-02T06:33:22.529Z,73.44
2023-02-02T06:35:49.915Z,73.15
2023-02-02T06:38:19.007Z,72.33
2023-02-02T06:40:46.372Z,72.26
2023-02-02T06:43:15.459Z,72.99
2023-02-02T06:45:44.208Z,73.15
2023-02-02T06:48:11.882Z,73.58
2023-02-02T06:50:39.461Z,73.77
2023-02-02T06:53:07.437Z,73.35
2023-02-02T06:55:34.779Z,73.18
2023-02-02T06:58:02.630Z,73.92
2023-02-02T07:00:31.087Z,73.48
2023-02-02T07:02:59.984Z,73.80
2023-02-02T07:05:30.840Z,73.93
2023-02-02T07:07:58.473Z,73.50
2023-02-02T07:11:09.369Z,74.10
2023-02-02T07:13:13.594Z,74.79
2023-02-02T07:15:41.800Z,75.15
2023-02-02T07:18:10.531Z,74.91
2023-02-02T07:20:37.904Z,75.78
2023-02-02T07:23:05.344Z,74.96
2023-02-02T07:25:32.731Z,75.07
2023-02-02T07:28:00.104Z,75.27
2023-02-02T07:30:29.737Z,74.82
2023-02-02T07:32:57.531Z,74.82
2023-02-02T07:35:26.568Z,74.76
2023-02-02T07:37:54.990Z,75.38
2023-02-02T07:40:22.922Z,77.00
2023-02-02T07:42:50.457Z,77.97
2023-02-02T07:45:27.095Z,78.37
2023-02-02T07:47:58.948Z,78.43
2023-02-02T07:50:29.672Z,77.84
2023-02-02T07:52:57.331Z,77.63
2023-02-02T07:55:24.823Z,75.79
2023-02-02T07:57:52.623Z,76.17
2023-02-02T08:00:21.197Z,75.70
2023-02-02T08:02:49.882Z,75.26
2023-02-02T08:05:17.639Z,75.27
2023-02-02T08:07:46.359Z,74.97
2023-02-02T08:10:13.702Z,74.76
2023-02-02T08:12:41.097Z,74.16
2023-02-02T08:15:09.501Z,74.78
2023-02-02T08:17:37.480Z,74.79
2023-02-02T08:20:05.579Z,74.23
2023-02-02T08:22:32.948Z,74.82
2023-02-02T08:25:01.675Z,74.35
2023-02-02T08:27:29.123Z,74.08
2023-02-02T08:29:56.473Z,74.34
2023-02-02T08:32:23.963Z,74.77
2023-02-02T08:34:51.783Z,74.79
2023-02-02T08:37:19.221Z,74.72
2023-02-02T08:39:46.586Z,75.01
2023-02-02T08:42:15.554Z,74.89
2023-02-02T08:45:57.565Z,74.14
2023-02-02T08:47:30.676Z,74.49
2023-02-02T08:49:58.247Z,74.89
2023-02-02T08:52:25.999Z,75.01
2023-02-02T08:54:53.386Z,75.18
2023-02-02T08:57:22.071Z,74.86
2023-02-02T08:59:49.487Z,76.15
2023-02-02T09:02:17.915Z,77.15
2023-02-02T09:04:46.966Z,77.38
2023-02-02T09:07:14.389Z,77.29
2023-02-02T09:09:41.834Z,77.16
2023-02-02T09:12:09.212Z,77.33
2023-02-02T09:14:37.919Z,76.98
2023-02-02T09:17:05.323Z,77.71
2023-02-02T09:19:32.991Z,77.16
2023-02-02T09:22:00.467Z,77.75
2023-02-02T09:24:27.975Z,77.47
2023-02-02T09:26:55.415Z,77.29
2023-02-02T09:29:22.781Z,77.59
2023-02-02T09:31:51.604Z,79.32
2023-02-02T09:34:19.009Z,79.99
2023-02-02T09:36:47.403Z,80.49
2023-02-02T09:39:16.571Z,81.68
2023-02-02T09:42:29.087Z,82.79
2023-02-02T09:45:08.579Z,81.76
2023-02-02T09:47:55.540Z,82.01
2023-02-02T09:50:40.899Z,82.01
2023-02-02T09:53:15.240Z,82.83
2023-02-02T09:55:45.541Z,83.30
2023-02-02T09:58:17.421Z,83.45
2023-02-02T10:00:48.729Z,84.07
2023-02-02T10:03:22.130Z,83.86
2023-02-02T10:05:55.518Z,84.04
2023-02-02T10:08:35.055Z,84.65
2023-02-02T10:11:11.724Z,82.68
2023-02-02T10:13:43.488Z,82.46
2023-02-02T10:16:17.366Z,82.08
2023-02-02T10:18:50.251Z,80.89
2023-02-02T10:21:27.424Z,80.14
2023-02-02T10:23:55.012Z,81.17
2023-02-02T10:26:24.228Z,81.99
2023-02-02T10:29:06.248Z,81.05
2023-02-02T10:31:45.153Z,81.54
2023-02-02T10:34:18.826Z,83.59
2023-02-02T10:36:56.981Z,85.18
2023-02-02T10:39:32.156Z,86.52
2023-02-02T10:42:14.080Z,87.23
2023-02-02T10:44:48.626Z,87.75
2023-02-02T10:47:24.725Z,88.58
2023-02-02T10:50:01.556Z,88.45
2023-02-02T10:52:33.962Z,89.38
2023-02-02T10:55:05.925Z,88.99
2023-02-02T10:57:49.382Z,89.64
2023-02-02T11:00:23.389Z,89.06
2023-02-02T11:02:52.449Z,88.16
2023-02-02T11:05:41.269Z,88.22
2023-02-02T11:08:16.922Z,89.10
2023-02-02T11:10:45.898Z,87.49
2023-02-02T11:13:17.852Z,88.01
2023-02-02T11:15:45.295Z,87.17
2023-02-02T11:18:28.712Z,86.65
2023-02-02T11:20:58.455Z,86.22
2023-02-02T11:23:29.060Z,84.53
2023-02-02T11:26:01.613Z,85.59
2023-02-02T11:28:34.141Z,84.63
2023-02-02T11:31:01.772Z,84.29
2023-02-02T11:33:33.053Z,84.91
2023-02-02T11:36:03.787Z,83.76
2023-02-02T11:38:32.224Z,84.68
2023-02-02T11:41:03.751Z,83.93
2023-02-02T11:43:34.248Z,83.98
2023-02-02T11:46:04.247Z,84.12
2023-02-02T11:48:35.729Z,82.45
2023-02-02T11:51:07.025Z,82.56
2023-02-02T11:53:40.110Z,83.67
2023-02-02T11:56:18.404Z,83.42
2023-02-02T11:58:47.145Z,83.34
2023-02-02T12:01:25.596Z,85.69
2023-02-02T12:03:55.109Z,85.07
2023-02-02T12:06:26.267Z,85.42
2023-02-02T12:08:57.999Z,86.06
2023-02-02T12:11:40.488Z,85.21
2023-02-02T12:14:22.326Z,84.92
2023-02-02T12:16:58.889Z,83.41
2023-02-02T12:19:49.764Z,83.80
2023-02-02T12:22:33.434Z,81.94
2023-02-02T12:25:14.418Z,83.42
2023-02-02T12:27:51.439Z,82.85
2023-02-02T12:30:28.759Z,81.71
2023-02-02T12:33:09.893Z,82.05
2023-02-02T12:35:51.004Z,82.54
2023-02-02T12:38:31.613Z,83.69
2023-02-02T12:41:23.124Z,83.31
2023-02-02T12:43:59.338Z,83.09
2023-02-02T12:46:38.682Z,82.55
2023-02-02T12:49:28.809Z,81.98
2023-02-02T12:52:20.391Z,81.70
2023-02-02T12:55:08.074Z,80.74
2023-02-02T12:57:47.401Z,79.39
2023-02-02T13:00:34.616Z,79.22
2023-02-02T13:03:16.976Z,79.21
2023-02-02T13:05:58.417Z,79.21
2023-02-02T13:08:30.824Z,79.35
2023-02-02T13:11:04.703Z,79.74
2023-02-02T13:13:37.780Z,80.76
2023-02-02T13:16:08.500Z,80.85
2023-02-02T13:18:40.451Z,81.25
2023-02-02T13:21:12.541Z,81.31
2023-02-02T13:23:45.220Z,81.48
2023-02-02T13:26:19.702Z,81.15
2023-02-02T13:28:53.509Z,79.95
2023-02-02T13:31:25.877Z,79.44
2023-02-02T13:34:02.704Z,79.10
2023-02-02T13:36:37.107Z,78.46
2023-02-02T13:39:15.862Z,78.12
2023-02-02T13:41:45.375Z,77.86
2023-02-02T13:44:22.515Z,77.50
2023-02-02T13:46:56.741Z,77.79
2023-02-02T13:49:29.899Z,77.45
2023-02-02T13:52:15.899Z,76.93
2023-02-02T13:55:21.709Z,77.31
2023-02-02T13:58:12.442Z,77.10
2023-02-02T14:00:47.534Z,76.86
2023-02-02T14:03:32.127Z,76.89
2023-02-02T14:06:05.609Z,78.08
2023-02-02T14:08:33.558Z,78.32
2023-02-02T14:11:03.289Z,79.17
2023-02-02T14:13:56.487Z,79.14
2023-02-02T14:16:25.998Z,79.18
2023-02-02T14:18:57.748Z,78.58
2023-02-02T14:22:00.025Z,78.62
2023-02-02T14:24:43.403Z,78.25
2023-02-02T14:28:02.889Z,77.51
2023-02-02T14:30:34.814Z,77.29
2023-02-02T14:33:39.080Z,77.10
2023-02-02T14:36:13.596Z,77.27
2023-02-02T14:39:02.597Z,76.73
2023-02-02T14:42:00.911Z,76.61
2023-02-02T14:44:30.612Z,77.31
2023-02-02T14:46:59.406Z,76.98
2023-02-02T14:49:35.349Z,76.63
2023-02-02T14:52:05.234Z,78.38
2023-02-02T14:54:36.733Z,79.66
2023-02-02T14:57:07.204Z,81.20
2023-02-02T14:59:38.434Z,81.15
2023-02-02T15:02:18.359Z,81.12
2023-02-02T15:04:47.946Z,80.98
2023-02-02T15:07:52.878Z,82.10
2023-02-02T15:10:57.659Z,82.41
2023-02-02T15:13:27.955Z,82.58
2023-02-02T15:16:07.478Z,82.35
2023-02-02T15:18:44.154Z,81.93
2023-02-02T15:21:16.331Z,81.99
2023-02-02T15:23:46.107Z,82.50
2023-02-02T15:26:18.289Z,82.32
2023-02-02T15:28:52.328Z,82.84
2023-02-02T15:31:28.758Z,82.88
2023-02-02T15:34:01.107Z,82.38
2023-02-02T15:36:32.502Z,82.32
2023-02-02T15:39:03.933Z,82.28
2023-02-02T15:41:34.391Z,82.79
2023-02-02T15:44:02.144Z,83.67
2023-02-02T15:46:35.087Z,82.60
2023-02-02T15:49:35.326Z,83.21
2023-02-02T15:52:12.307Z,83.13
2023-02-02T15:54:49.267Z,83.48
2023-02-02T15:57:24.926Z,84.48
2023-02-02T15:59:52.546Z,84.12
2023-02-02T16:02:25.897Z,84.26
2023-02-02T16:04:54.641Z,84.64
2023-02-02T16:07:28.083Z,85.46
2023-02-02T16:09:55.501Z,85.64
2023-02-02T16:12:24.357Z,86.45
2023-02-02T16:14:53.925Z,86.84
2023-02-02T16:17:23.955Z,87.60
2023-02-02T16:19:59.635Z,87.11
2023-02-02T16:22:30.769Z,86.56
2023-02-02T16:25:02.981Z,87.50
2023-02-02T16:27:31.663Z,88.58
2023-02-02T16:30:02.159Z,90.66
2023-02-02T16:32:32.694Z,90.72
2023-02-02T16:35:02.876Z,92.31
2023-02-02T16:37:32.832Z,92.04
2023-02-02T16:40:19.876Z,92.28
2023-02-02T16:43:04.645Z,92.08
2023-02-02T16:45:35.615Z,92.11
2023-02-02T16:48:28.253Z,94.04
2023-02-02T16:51:12.722Z,94.74
2023-02-02T16:53:41.747Z,93.58
2023-02-02T16:56:10.750Z,93.09
2023-02-02T16:58:45.198Z,94.05
2023-02-02T17:01:16.333Z,94.20
2023-02-02T17:03:51.070Z,95.52
2023-02-02T17:06:25.407Z,95.29
2023-02-02T17:08:54.092Z,94.61
2023-02-02T17:11:25.095Z,94.68
2023-02-02T17:13:53.659Z,94.57
2023-02-02T17:16:23.220Z,94.86
2023-02-02T17:18:52.184Z,95.83
2023-02-02T17:21:22.615Z,95.07
2023-02-02T17:23:54.035Z,95.06
2023-02-02T17:26:22.929Z,94.80
2023-02-02T17:28:55.676Z,94.17
2023-02-02T17:31:23.222Z,94.32
2023-02-02T17:33:50.727Z,95.22
2023-02-02T17:36:18.136Z,95.41
2023-02-02T17:38:45.554Z,95.14
2023-02-02T17:41:14.142Z,95.54
2023-02-02T17:43:43.570Z,95.64
2023-02-02T17:46:12.962Z,96.36
2023-02-02T17:48:40.341Z,97.05
2023-02-02T17:51:14.900Z,98.57
2023-02-02T17:53:42.343Z,98.75
2023-02-02T17:56:09.845Z,98.39
2023-02-02T17:58:37.198Z,98.01
2023-02-02T18:01:06.295Z,97.38
2023-02-02T18:03:36.659Z,97.58
2023-02-02T18:06:04.820Z,97.80
2023-02-02T18:08:33.856Z,98.10
2023-02-02T18:11:04.569Z,97.63
2023-02-02T18:13:32.253Z,97.49
2023-02-02T18:15:59.952Z,96.00
2023-02-02T18:18:29.754Z,95.16
2023-02-02T18:21:01.587Z,95.76
2023-02-02T18:23:29.427Z,95.31
2023-02-02T18:25:56.845Z,95.90
2023-02-02T18:28:24.350Z,95.56
2023-02-02T18:30:51.830Z,95.72
2023-02-02T18:33:19.873Z,96.04
2023-02-02T18:35:49.138Z,97.47
2023-02-02T18:38:16.534Z,98.06
2023-02-02T18:40:43.924Z,97.71
2023-02-02T18:43:11.370Z,96.78
2023-02-02T18:45:38.751Z,96.96
2023-02-02T18:48:06.502Z,97.21
2023-02-02T18:50:33.887Z,97.23
2023-02-02T18:53:02.589Z,97.32
2023-02-02T18:55:29.949Z,97.13
2023-02-02T18:57:57.348Z,96.96
2023-02-02T19:00:25.013Z,97.42
2023-02-02T19:02:55.555Z,97.21
2023-02-02T19:05:40.533Z,97.86
2023-02-02T19:08:09.622Z,97.48
2023-02-02T19:10:37.248Z,98.19
2023-02-02T19:13:15.355Z,98.72
2023-02-02T19:15:43.035Z,98.31
2023-02-02T19:18:14.916Z,98.34
2023-02-02T19:20:43.255Z,97.64
2023-02-02T19:23:14.508Z,97.78
2023-02-02T19:25:45.544Z,97.63
2023-02-02T19:28:22.035Z,97.54
2023-02-02T19:30:50.076Z,97.21
2023-02-02T19:33:17.643Z,97.34
2023-02-02T19:35:47.845Z,96.96
2023-02-02T19:38:20.436Z,97.65
2023-02-02T19:40:47.890Z,97.27
2023-02-02T19:43:27.030Z,97.34
2023-02-02T19:45:54.617Z,97.58
2023-02-02T19:48:26.379Z,97.61
2023-02-02T19:50:55.239Z,97.32
2023-02-02T19:53:25.704Z,97.23
2023-02-02T19:55:53.440Z,97.67
2023-02-02T19:58:23.255Z,97.84
2023-02-02T20:00:53.164Z,98.17
2023-02-02T20:03:22.421Z,97.84
2023-02-02T20:05:52.369Z,98.05
2023-02-02T20:08:27.668Z,97.97
2023-02-02T20:10:56.256Z,97.71
2023-02-02T20:13:26.425Z,97.44
2023-02-02T20:16:03.729Z,97.15
2023-02-02T20:18:38.633Z,98.00
2023-02-02T20:21:10.524Z,97.62
2023-02-02T20:23:43.829Z,97.74
2023-02-02T20:26:23.126Z,97.34
2023-02-02T20:28:52.502Z,97.19
2023-02-02T20:31:23.317Z,97.28
2023-02-02T20:33:53.175Z,97.56
2023-02-02T20:36:32.538Z,97.38
2023-02-02T20:39:21.406Z,97.56
2023-02-02T20:41:48.903Z,98.03
2023-02-02T20:44:16.307Z,97.97
2023-02-02T20:46:43.725Z,97.15
2023-02-02T20:49:11.158Z,96.63
2023-02-02T20:51:40.589Z,96.99
2023-02-02T20:54:10.370Z,97.30
2023-02-02T20:56:38.516Z,97.20
2023-02-02T20:59:07.394Z,97.31
2023-02-02T21:01:34.941Z,97.15
2023-02-02T21:04:05.296Z,97.54
2023-02-02T21:06:32.697Z,97.19
2023-02-02T21:09:00.120Z,97.16
2023-02-02T21:11:28.856Z,97.07
2023-02-02T21:13:57.254Z,97.43
2023-02-02T21:16:25.202Z,96.73
2023-02-02T21:18:53.187Z,97.03
2023-02-02T21:21:22.436Z,96.42
2023-02-02T21:23:51.432Z,96.10
2023-02-02T21:26:23.374Z,96.49
2023-02-02T21:28:52.063Z,96.49
2023-02-02T21:31:19.767Z,96.74
2023-02-02T21:33:49.846Z,96.81
2023-02-02T21:36:32.637Z,97.19
2023-02-02T21:39:05.842Z,97.07
2023-02-02T21:41:34.265Z,96.95
2023-02-02T21:44:03.051Z,97.08
2023-02-02T21:46:35.970Z,97.15
2023-02-02T21:49:04.171Z,97.44
2023-02-02T21:51:35.377Z,96.46
2023-02-02T21:54:20.782Z,96.06
2023-02-02T21:56:48.645Z,96.09
2023-02-02T21:59:19.458Z,95.39
2023-02-02T22:01:48.543Z,95.52
2023-02-02T22:04:19.139Z,95.18
2023-02-02T22:06:47.940Z,95.66
2023-02-02T22:09:19.883Z,94.82
2023-02-02T22:11:50.637Z,94.62
2023-02-02T22:14:21.951Z,95.51
2023-02-02T22:16:52.034Z,95.93
2023-02-02T22:19:26.417Z,96.33
2023-02-02T22:21:55.387Z,96.33
2023-02-02T22:24:23.031Z,96.46
2023-02-02T22:26:50.355Z,96.79
2023-02-02T22:29:21.163Z,96.24
2023-02-02T22:31:48.644Z,96.18
2023-02-02T22:34:16.061Z,95.70
2023-02-02T22:36:43.431Z,95.40
2023-02-02T22:39:10.928Z,96.47
2023-02-02T22:41:38.287Z,95.69
2023-02-02T22:44:05.943Z,94.52
2023-02-02T22:46:34.732Z,95.36
2023-02-02T22:49:02.124Z,95.48
2023-02-02T22:51:29.500Z,95.33
2023-02-02T22:53:56.879Z,96.32
2023-02-02T22:56:24.381Z,95.50
2023-02-02T22:58:51.798Z,95.80
2023-02-02T23:01:19.141Z,96.35
2023-02-02T23:03:48.593Z,95.30
2023-02-02T23:06:16.191Z,94.95
2023-02-02T23:08:44.290Z,94.78
2023-02-02T23:11:11.682Z,95.93
2023-02-02T23:13:39.053Z,95.35
2023-02-02T23:16:07.149Z,95.34
2023-02-02T23:18:34.562Z,95.38
2023-02-02T23:21:03.323Z,95.59
2023-02-02T23:23:30.713Z,96.09
2023-02-02T23:25:58.088Z,95.95
2023-02-02T23:28:25.737Z,96.11
2023-02-02T23:30:54.567Z,96.04
2023-02-02T23:33:22.029Z,95.24
2023-02-02T23:35:49.399Z,94.82
2023-02-02T23:38:18.079Z,95.07
2023-02-02T23:40:45.777Z,95.46
2023-02-02T23:43:13.161Z,94.47
2023-02-02T23:45:40.729Z,94.37
2023-02-02T23:48:09.537Z,93.97
2023-02-02T23:50:38.761Z,94.35
2023-02-02T23:53:06.636Z,94.30
2023-02-02T23:55:35.605Z,94.43
2023-02-02T23:58:03.129Z,94.64
